createdAt,value
2023-01-02T00:01:06.707Z,10.28
2023-01-02T00:03:38.189Z,10.32
2023-01-02T00:06:06.994Z,10.29
2023-01-02T00:08:45.047Z,10.32
2023-01-02T00:11:14.208Z,10.25
2023-01-02T00:13:42.413Z,10.27
2023-01-02T00:16:10.826Z,10.30
2023-01-02T00:18:38.554Z,10.40
2023-01-02T00:21:06.678Z,10.57
2023-01-02T00:23:34.760Z,9.94
2023-01-02T00:26:03.133Z,10.07
2023-01-02T00:28:30.914Z,10.05
2023-01-02T00:31:01.802Z,10.09
2023-01-02T00:33:29.871Z,10.17
2023-01-02T00:35:57.836Z,10.17
2023-01-02T00:38:25.794Z,10.15
2023-01-02T00:40:56.706Z,10.18
2023-01-02T00:43:27.174Z,10.33
2023-01-02T00:45:55.313Z,10.38
2023-01-02T00:48:23.619Z,10.23
2023-01-02T00:50:51.303Z,10.28
2023-01-02T00:53:19.362Z,10.40
2023-01-02T00:55:47.037Z,10.43
2023-01-02T00:58:14.472Z,10.27
2023-01-02T01:00:42.563Z,10.28
2023-01-02T01:03:10.532Z,10.21
2023-01-02T01:05:40.402Z,10.33
2023-01-02T01:08:08.294Z,10.40
2023-01-02T01:10:37.207Z,10.28
2023-01-02T01:13:04.924Z,10.12
2023-01-02T01:15:34.116Z,10.23
2023-01-02T01:18:01.258Z,10.40
2023-01-02T01:20:28.801Z,10.37
2023-01-02T01:22:57.124Z,10.38
2023-01-02T01:25:25.447Z,10.32
2023-01-02T01:27:56.642Z,10.45
2023-01-02T01:30:24.604Z,10.47
2023-01-02T01:32:52.615Z,10.56
2023-01-02T01:35:20.585Z,10.46
2023-01-02T01:37:48.331Z,10.26
2023-01-02T01:40:16.909Z,10.23
2023-01-02T01:42:47.981Z,10.23
2023-01-02T01:45:18.737Z,10.25
2023-01-02T01:47:48.200Z,10.17
2023-01-02T01:50:32.574Z,10.17
2023-01-02T01:53:16.432Z,10.17
2023-01-02T01:55:51.596Z,10.19
2023-01-02T01:58:23.900Z,10.22
2023-01-02T02:00:51.588Z,10.16
2023-01-02T02:03:22.110Z,10.28
2023-01-02T02:05:49.478Z,10.36
2023-01-02T02:08:33.219Z,10.33
2023-01-02T02:11:01.060Z,10.35
2023-01-02T02:13:28.854Z,10.36
2023-01-02T02:16:14.091Z,10.33
2023-01-02T02:19:05.516Z,10.30
2023-01-02T02:21:38.136Z,10.29
2023-01-02T02:24:29.606Z,10.29
2023-01-02T02:26:56.227Z,10.35
2023-01-02T02:29:32.375Z,10.35
2023-01-02T02:32:06.232Z,10.31
2023-01-02T02:35:03.970Z,10.28
2023-01-02T02:37:51.223Z,10.07
2023-01-02T02:41:07.985Z,10.08
2023-01-02T02:43:56.527Z,10.14
2023-01-02T02:46:34.284Z,9.97
2023-01-02T02:49:23.814Z,10.11
2023-01-02T02:52:06.287Z,10.06
2023-01-02T02:54:54.993Z,10.08
2023-01-02T02:57:22.008Z,10.01
2023-01-02T02:59:50.017Z,10.06
2023-01-02T03:02:17.754Z,9.99
2023-01-02T03:04:46.194Z,9.92
2023-01-02T03:07:16.520Z,9.87
2023-01-02T03:09:45.152Z,9.91
2023-01-02T03:12:30.893Z,9.89
2023-01-02T03:15:08.900Z,10.02
2023-01-02T03:17:59.339Z,10.05
2023-01-02T03:20:28.878Z,9.97
2023-01-02T03:22:58.626Z,9.87
2023-01-02T03:25:26.700Z,9.82
2023-01-02T03:27:54.691Z,9.80
2023-01-02T03:30:22.207Z,9.73
2023-01-02T03:32:58.625Z,9.71
2023-01-02T03:35:53.109Z,9.66
2023-01-02T03:38:32.592Z,9.64
2023-01-02T03:41:14.629Z,9.70
2023-01-02T03:43:42.025Z,9.78
2023-01-02T03:46:21.305Z,9.77
2023-01-02T03:49:08.527Z,9.78
2023-01-02T03:51:35.973Z,9.74
2023-01-02T03:54:02.900Z,9.73
2023-01-02T03:56:32.873Z,9.67
2023-01-02T03:59:05.696Z,9.72
2023-01-02T04:01:42.288Z,9.70
2023-01-02T04:04:14.317Z,9.71
2023-01-02T04:06:43.037Z,9.71
2023-01-02T04:09:11.916Z,9.85
2023-01-02T04:11:40.569Z,9.86
2023-01-02T04:15:01.957Z,9.66
2023-01-02T04:17:30.912Z,9.78
2023-01-02T04:20:00.995Z,9.86
2023-01-02T04:22:30.799Z,9.90
2023-01-02T04:25:09.374Z,9.93
2023-01-02T04:27:38.898Z,9.94
2023-01-02T04:30:08.579Z,9.86
2023-01-02T04:32:42.580Z,9.94
2023-01-02T04:35:11.059Z,9.88
2023-01-02T04:37:40.366Z,9.94
2023-01-02T04:40:16.351Z,9.97
2023-01-02T04:42:51.838Z,10.01
2023-01-02T04:45:19.551Z,10.03
2023-01-02T04:47:50.471Z,9.96
2023-01-02T04:50:18.779Z,10.04
2023-01-02T04:52:46.743Z,10.08
2023-01-02T04:55:14.824Z,10.08
2023-01-02T04:57:42.807Z,9.94
2023-01-02T05:00:12.700Z,9.93
2023-01-02T05:02:41.708Z,9.94
2023-01-02T05:05:10.841Z,9.97
2023-01-02T05:07:38.554Z,9.95
2023-01-02T05:10:07.753Z,9.86
2023-01-02T05:12:36.176Z,9.98
2023-01-02T05:15:04.933Z,9.96
2023-01-02T05:17:55.435Z,9.98
2023-01-02T05:20:23.653Z,10.06
2023-01-02T05:23:10.145Z,10.04
2023-01-02T05:25:38.246Z,10.05
2023-01-02T05:28:06.393Z,10.09
2023-01-02T05:30:33.913Z,10.01
2023-01-02T05:33:01.858Z,9.93
2023-01-02T05:35:33.064Z,9.96
2023-01-02T05:38:02.002Z,9.93
2023-01-02T05:40:29.979Z,9.93
2023-01-02T05:42:58.268Z,9.88
2023-01-02T05:45:29.193Z,9.94
2023-01-02T05:47:57.233Z,9.89
2023-01-02T05:50:25.226Z,9.88
2023-01-02T05:52:53.663Z,9.79
2023-01-02T05:55:21.656Z,9.83
2023-01-02T05:57:49.650Z,9.81
2023-01-02T06:00:18.686Z,9.77
2023-01-02T06:02:48.370Z,9.78
2023-01-02T06:05:16.736Z,9.72
2023-01-02T06:07:44.679Z,9.72
2023-01-02T06:10:12.533Z,9.65
2023-01-02T06:12:40.715Z,9.66
2023-01-02T06:15:11.222Z,9.71
2023-01-02T06:17:38.771Z,9.70
2023-01-02T06:20:07.979Z,9.83
2023-01-02T06:22:36.379Z,9.88
2023-01-02T06:25:05.181Z,9.86
2023-01-02T06:27:33.317Z,9.88
2023-01-02T06:30:04.965Z,9.78
2023-01-02T06:32:32.842Z,9.76
2023-01-02T06:35:00.810Z,9.81
2023-01-02T06:37:28.349Z,9.85
2023-01-02T06:39:56.372Z,9.86
2023-01-02T06:42:23.985Z,9.92
2023-01-02T06:44:51.859Z,9.90
2023-01-02T06:47:19.358Z,9.94
2023-01-02T06:49:47.339Z,9.96
2023-01-02T06:52:14.924Z,10.09
2023-01-02T06:54:42.920Z,10.13
2023-01-02T06:57:10.388Z,10.19
2023-01-02T06:59:38.475Z,10.21
2023-01-02T07:02:06.315Z,10.23
2023-01-02T07:04:34.521Z,10.19
2023-01-02T07:07:02.492Z,10.17
2023-01-02T07:09:30.522Z,10.17
2023-01-02T07:12:01.296Z,10.16
2023-01-02T07:14:29.145Z,10.16
2023-01-02T07:16:57.086Z,10.16
2023-01-02T07:19:24.998Z,10.21
2023-01-02T07:21:52.596Z,10.20
2023-01-02T07:24:20.970Z,10.18
2023-01-02T07:26:48.890Z,10.18
2023-01-02T07:29:16.945Z,10.32
2023-01-02T07:31:45.296Z,10.25
2023-01-02T07:34:16.677Z,10.24
2023-01-02T07:36:44.173Z,10.19
2023-01-02T07:39:12.299Z,10.18
2023-01-02T07:41:39.731Z,10.16
2023-01-02T07:44:08.500Z,10.17
2023-01-02T07:46:36.792Z,10.15
2023-01-02T07:49:04.731Z,10.14
2023-01-02T07:51:33.084Z,10.13
2023-01-02T07:54:01.059Z,10.17
2023-01-02T07:56:29.092Z,10.26
2023-01-02T07:58:56.623Z,10.32
2023-01-02T08:01:30.692Z,10.30
2023-01-02T08:03:58.673Z,10.37
2023-01-02T08:06:26.778Z,10.41
2023-01-02T08:08:53.624Z,10.37
2023-01-02T08:11:22.189Z,10.43
2023-01-02T08:13:50.048Z,10.24
2023-01-02T08:16:19.627Z,10.30
2023-01-02T08:18:47.449Z,10.31
2023-01-02T08:21:14.991Z,10.31
2023-01-02T08:23:42.978Z,10.37
2023-01-02T08:26:10.157Z,10.45
2023-01-02T08:28:37.685Z,10.51
2023-01-02T08:31:43.485Z,10.55
2023-01-02T08:34:15.285Z,10.64
2023-01-02T08:36:43.452Z,10.66
2023-01-02T08:39:10.640Z,10.67
2023-01-02T08:41:41.916Z,10.70
2023-01-02T08:44:10.230Z,10.43
2023-01-02T08:46:42.642Z,10.52
2023-01-02T08:49:11.847Z,10.54
2023-01-02T08:51:39.981Z,10.53
2023-01-02T08:54:08.067Z,10.65
2023-01-02T08:56:37.777Z,10.64
2023-01-02T08:59:29.441Z,10.65
2023-01-02T09:01:57.491Z,10.90
2023-01-02T09:04:25.817Z,10.62
2023-01-02T09:06:53.779Z,10.64
2023-01-02T09:09:21.410Z,10.71
2023-01-02T09:12:11.923Z,10.76
2023-01-02T09:14:40.291Z,10.80
2023-01-02T09:17:07.976Z,10.78
2023-01-02T09:19:36.244Z,10.67
2023-01-02T09:22:04.347Z,10.76
2023-01-02T09:24:31.777Z,10.76
2023-01-02T09:26:59.248Z,10.73
2023-01-02T09:29:26.783Z,10.81
2023-01-02T09:31:55.673Z,10.77
2023-01-02T09:34:24.412Z,10.90
2023-01-02T09:36:51.992Z,10.91
2023-01-02T09:39:20.199Z,10.90
2023-01-02T09:41:50.267Z,10.86
2023-01-02T09:44:25.504Z,10.76
2023-01-02T09:47:16.940Z,10.87
2023-01-02T09:50:14.302Z,10.88
2023-01-02T09:52:46.491Z,10.97
2023-01-02T09:55:46.005Z,11.07
2023-01-02T09:58:31.730Z,11.17
2023-01-02T10:01:06.589Z,11.29
2023-01-02T10:03:38.244Z,11.20
2023-01-02T10:06:44.578Z,11.20
2023-01-02T10:09:17.198Z,11.27
2023-01-02T10:12:07.007Z,11.25
2023-01-02T10:14:59.446Z,11.20
2023-01-02T10:17:30.293Z,11.27
2023-01-02T10:19:56.889Z,11.28
2023-01-02T10:22:29.621Z,11.28
2023-01-02T10:25:23.239Z,11.28
2023-01-02T10:28:00.409Z,11.15
2023-01-02T10:30:32.503Z,11.31
2023-01-02T10:33:11.283Z,11.36
2023-01-02T10:36:14.915Z,11.40
2023-01-02T10:38:42.450Z,11.40
2023-01-02T10:41:10.410Z,11.42
2023-01-02T10:43:37.466Z,11.45
2023-01-02T10:46:04.835Z,11.46
2023-01-02T10:48:34.023Z,11.48
2023-01-02T10:51:03.028Z,11.48
2023-01-02T10:53:34.655Z,11.44
2023-01-02T10:56:05.723Z,11.49
2023-01-02T10:58:33.822Z,11.53
2023-01-02T11:01:14.593Z,11.50
2023-01-02T11:03:45.377Z,11.59
2023-01-02T11:06:39.270Z,11.59
2023-01-02T11:09:22.485Z,11.66
2023-01-02T11:11:51.868Z,11.70
2023-01-02T11:17:41.320Z,11.64
2023-01-02T11:20:46.639Z,11.60
2023-01-02T11:23:14.121Z,11.67
2023-01-02T11:25:42.143Z,11.69
2023-01-02T11:28:25.989Z,11.75
2023-01-02T11:30:55.224Z,11.74
2023-01-02T11:33:27.311Z,11.68
2023-01-02T11:36:04.958Z,11.69
2023-01-02T11:38:54.665Z,11.72
2023-01-02T11:41:47.585Z,11.82
2023-01-02T11:44:31.713Z,11.86
2023-01-02T11:47:18.672Z,11.93
2023-01-02T11:49:49.369Z,11.90
2023-01-02T11:52:18.048Z,12.03
2023-01-02T11:54:45.780Z,12.05
2023-01-02T11:57:41.849Z,12.09
2023-01-02T12:00:15.282Z,12.08
2023-01-02T12:02:46.759Z,12.14
2023-01-02T12:05:22.777Z,12.08
2023-01-02T12:08:00.179Z,12.12
2023-01-02T12:10:36.947Z,12.10
2023-01-02T12:13:28.232Z,12.15
2023-01-02T12:16:13.242Z,12.16
2023-01-02T12:19:09.344Z,12.20
2023-01-02T12:21:36.302Z,12.19
2023-01-02T12:24:31.485Z,12.31
2023-01-02T12:27:17.355Z,12.26
2023-01-02T12:29:47.413Z,12.25
2023-01-02T12:32:46.131Z,12.16
2023-01-02T12:35:48.671Z,12.21
2023-01-02T12:38:26.204Z,12.23
2023-01-02T12:41:15.922Z,12.16
2023-01-02T12:43:57.771Z,12.19
2023-01-02T12:46:40.060Z,12.14
2023-01-02T12:49:45.926Z,12.16
2023-01-02T12:52:23.676Z,12.28
2023-01-02T13:22:28.603Z,12.15
2023-01-02T13:24:57.060Z,12.04
2023-01-02T13:27:25.027Z,12.02
2023-01-02T14:07:46.218Z,11.98
2023-01-02T14:10:20.191Z,11.98
2023-01-02T14:12:56.250Z,11.98
2023-01-02T14:15:24.693Z,11.99
2023-01-02T14:18:06.216Z,11.91
2023-01-02T14:20:34.806Z,11.95
2023-01-02T14:23:07.936Z,12.02
2023-01-02T14:25:35.998Z,11.97
2023-01-02T14:28:04.914Z,12.05
2023-01-02T14:30:42.298Z,11.93
2023-01-02T14:33:10.527Z,11.93
2023-01-02T14:36:12.269Z,11.93
2023-01-02T14:38:43.757Z,11.91
2023-01-02T14:41:33.182Z,11.86
2023-01-02T14:44:01.515Z,11.77
2023-01-02T14:46:29.483Z,11.85
2023-01-02T14:49:00.871Z,11.90
2023-01-02T14:51:36.962Z,11.88
2023-01-02T14:54:24.263Z,11.92
2023-01-02T14:56:57.141Z,11.82
2023-01-02T14:59:35.167Z,11.86
2023-01-02T15:02:06.762Z,11.82
2023-01-02T15:04:42.408Z,11.81
2023-01-02T15:07:14.961Z,11.77
2023-01-02T15:09:47.510Z,11.73
2023-01-02T15:12:50.199Z,11.74
2023-01-02T15:15:20.336Z,11.77
2023-01-02T15:17:48.758Z,11.76
2023-01-02T15:20:21.889Z,11.76
2023-01-02T15:22:52.368Z,11.72
2023-01-02T15:25:38.474Z,11.57
2023-01-02T15:28:07.400Z,11.44
2023-01-02T15:30:40.216Z,11.43
2023-01-02T15:33:26.488Z,11.39
2023-01-02T15:36:04.922Z,11.27
2023-01-02T15:38:32.368Z,11.09
2023-01-02T15:41:01.163Z,11.13
2023-01-02T15:44:05.737Z,11.14
2023-01-02T15:46:34.560Z,11.12
2023-01-02T15:49:04.232Z,11.13
2023-01-02T15:51:40.088Z,11.14
2023-01-02T15:54:12.718Z,11.14
2023-01-02T15:56:40.466Z,11.08
2023-01-02T15:59:29.913Z,11.11
2023-01-02T16:02:09.581Z,11.09
2023-01-02T16:04:38.263Z,11.10
2023-01-02T16:07:29.232Z,11.14
2023-01-02T16:09:57.724Z,11.12
2023-01-02T16:12:25.668Z,11.17
2023-01-02T16:14:55.831Z,11.16
2023-01-02T16:17:28.348Z,11.07
2023-01-02T16:20:00.257Z,11.08
2023-01-02T16:22:44.848Z,11.05
2023-01-02T16:25:23.164Z,11.01
2023-01-02T16:27:53.696Z,11.05
2023-01-02T16:30:41.172Z,11.01
2023-01-02T16:33:45.914Z,11.00
2023-01-02T16:36:15.924Z,11.00
2023-01-02T16:38:54.160Z,10.94
2023-01-02T16:41:41.260Z,10.94
2023-01-02T16:44:33.725Z,10.98
2023-01-02T16:47:01.829Z,10.96
2023-01-02T16:49:32.085Z,10.97
2023-01-02T16:52:00.743Z,11.07
2023-01-02T16:54:30.264Z,11.14
2023-01-02T16:56:58.853Z,11.10
2023-01-02T16:59:27.743Z,11.12
2023-01-02T17:01:56.761Z,11.13
2023-01-02T17:04:25.284Z,11.15
2023-01-02T17:06:57.669Z,11.02
2023-01-02T17:09:26.232Z,10.98
2023-01-02T17:12:00.397Z,10.89
2023-01-02T17:14:33.785Z,10.86
2023-01-02T17:17:02.834Z,10.87
2023-01-02T17:19:32.349Z,10.90
2023-01-02T17:22:01.606Z,10.91
2023-01-02T17:24:29.869Z,10.93
2023-01-02T17:26:58.329Z,10.97
2023-01-02T17:29:27.234Z,10.95
2023-01-02T17:31:55.916Z,10.99
2023-01-02T17:34:24.834Z,10.97
2023-01-02T17:36:53.298Z,11.01
2023-01-02T17:39:22.095Z,11.01
2023-01-02T17:41:51.956Z,11.03
2023-01-02T17:44:21.498Z,11.00
2023-01-02T17:47:38.590Z,10.96
2023-01-02T17:49:42.065Z,10.92
2023-01-02T17:52:12.765Z,10.93
2023-01-02T17:54:41.023Z,10.93
2023-01-02T17:57:11.186Z,10.97
2023-01-02T17:59:39.502Z,10.97
2023-01-02T18:02:08.099Z,10.98
2023-01-02T18:04:38.657Z,10.97
2023-01-02T18:07:07.532Z,10.98
2023-01-02T18:09:36.402Z,10.97
2023-01-02T18:12:04.995Z,11.01
2023-01-02T18:14:34.628Z,10.98
2023-01-02T18:17:10.830Z,10.99
2023-01-02T18:19:39.106Z,10.98
2023-01-02T18:22:17.001Z,10.97
2023-01-02T18:24:46.648Z,10.94
2023-01-02T18:27:14.531Z,10.97
2023-01-02T18:29:44.609Z,11.01
2023-01-02T18:32:38.421Z,11.05
2023-01-02T18:38:38.572Z,11.10
2023-01-02T18:47:03.008Z,11.05
2023-01-02T18:49:26.703Z,10.99
2023-01-02T18:54:47.249Z,10.94
2023-01-02T18:59:51.818Z,11.01
2023-01-02T19:02:33.968Z,11.04
2023-01-02T19:05:05.639Z,11.03
2023-01-02T19:07:35.133Z,11.02
2023-01-02T19:10:08.531Z,10.94
2023-01-02T19:13:16.965Z,10.91
2023-01-02T19:15:50.162Z,10.91
2023-01-02T19:18:35.350Z,10.96
2023-01-02T19:21:03.947Z,10.98
2023-01-02T19:23:33.706Z,10.94
2023-01-02T19:26:26.329Z,10.94
2023-01-02T19:29:18.542Z,10.94
2023-01-02T19:32:03.824Z,10.96
2023-01-02T19:34:44.055Z,10.94
2023-01-02T19:37:10.960Z,10.95
2023-01-02T19:39:45.169Z,10.97
2023-01-02T19:42:21.323Z,10.89
2023-01-02T19:44:52.846Z,10.92
2023-01-02T19:47:21.250Z,10.90
2023-01-02T19:49:49.182Z,10.99
2023-01-02T19:52:16.994Z,11.00
2023-01-02T19:54:45.705Z,11.02
2023-01-02T19:57:16.497Z,11.01
2023-01-02T19:59:48.602Z,10.97
2023-01-02T20:02:17.376Z,10.96
2023-01-02T20:04:45.126Z,11.01
2023-01-02T20:07:13.508Z,11.00
2023-01-02T20:09:42.853Z,11.02
2023-01-02T20:12:33.219Z,10.97
2023-01-02T20:15:17.636Z,11.00
2023-01-02T20:17:46.212Z,10.98
2023-01-02T20:20:16.542Z,10.87
2023-01-02T20:22:44.622Z,10.86
2023-01-02T20:25:12.527Z,10.88
2023-01-02T20:27:41.380Z,10.78
2023-01-02T20:30:11.874Z,10.83
2023-01-02T20:32:39.918Z,10.81
2023-01-02T20:35:10.108Z,10.83
2023-01-02T20:37:38.013Z,10.80
2023-01-02T20:40:08.501Z,10.79
2023-01-02T20:42:39.470Z,10.79
2023-01-02T20:45:10.549Z,10.85
2023-01-02T20:47:38.512Z,10.86
2023-01-02T20:50:07.497Z,10.77
2023-01-02T20:52:36.164Z,10.78
2023-01-02T20:55:05.049Z,10.83
2023-01-02T20:57:33.763Z,10.84
2023-01-02T21:00:02.704Z,10.86
2023-01-02T21:02:51.838Z,10.86
2023-01-02T21:05:21.242Z,10.86
2023-01-02T21:07:49.884Z,10.89
2023-01-02T21:10:18.643Z,10.74
2023-01-02T21:13:05.311Z,10.75
2023-01-02T21:15:45.847Z,10.71
2023-01-02T21:18:16.812Z,10.77
2023-01-02T21:20:46.908Z,10.82
2023-01-02T21:23:15.199Z,10.89
2023-01-02T21:25:43.474Z,10.83
2023-01-02T21:28:14.709Z,10.81
2023-01-02T21:30:43.652Z,10.81
2023-01-02T21:33:17.417Z,10.82
2023-01-02T21:35:46.400Z,10.83
2023-01-02T21:38:15.922Z,10.85
2023-01-02T21:40:45.233Z,10.83
2023-01-02T21:43:13.963Z,10.80
2023-01-02T21:59:06.112Z,10.25
2023-01-02T22:01:34.650Z,10.20
2023-01-02T22:04:03.954Z,10.18
2023-01-02T22:06:34.360Z,10.56
2023-01-02T22:09:03.899Z,10.66
2023-01-02T22:11:51.051Z,10.65
2023-01-02T22:14:22.734Z,10.69
2023-01-02T22:16:51.253Z,10.65
2023-01-02T22:19:20.278Z,10.68
2023-01-02T22:21:49.037Z,10.68
2023-01-02T22:24:16.568Z,10.69
2023-01-02T22:26:45.322Z,10.72
2023-01-02T22:29:14.149Z,10.66
2023-01-02T22:31:43.234Z,10.67
2023-01-02T22:34:10.720Z,10.66
2023-01-02T22:36:38.790Z,10.69
2023-01-02T22:39:27.699Z,10.66
2023-01-02T22:42:57.703Z,10.56
2023-01-02T22:45:09.782Z,10.53
2023-01-02T22:47:38.958Z,10.54
2023-01-02T22:50:11.819Z,10.48
2023-01-02T22:52:41.144Z,10.51
2023-01-02T22:55:20.830Z,10.50
2023-01-02T22:58:11.235Z,10.51
2023-01-02T23:00:40.149Z,10.38
2023-01-02T23:03:16.098Z,10.44
2023-01-02T23:05:43.767Z,10.48
2023-01-02T23:10:53.407Z,10.45
2023-01-02T23:13:22.252Z,10.45
2023-01-02T23:16:10.345Z,10.45
2023-01-02T23:18:57.331Z,10.49
2023-01-02T23:21:28.810Z,10.47
2023-01-02T23:23:57.403Z,10.49
2023-01-02T23:26:25.823Z,10.49
2023-01-02T23:29:07.174Z,10.47
2023-01-02T23:31:38.427Z,10.48
2023-01-02T23:34:06.606Z,10.44
2023-01-02T23:36:34.641Z,10.44
2023-01-02T23:39:02.917Z,10.49
2023-01-02T23:53:16.298Z,10.41
2023-01-02T23:55:45.241Z,10.42
2023-01-02T23:58:14.531Z,10.43
